createdAt,value
2022-08-17T00:00:43.215Z,43.83
2022-08-17T00:03:13.672Z,47.90
2022-08-17T00:05:46.716Z,50.37
2022-08-17T00:08:18.044Z,47.67
2022-08-17T00:10:47.738Z,47.00
2022-08-17T00:13:21.266Z,50.20
2022-08-17T00:15:49.959Z,52.73
2022-08-17T00:19:01.048Z,49.57
2022-08-17T00:21:10.463Z,52.43
2022-08-17T00:23:47.677Z,50.57
2022-08-17T00:26:43.135Z,53.33
2022-08-17T00:29:09.861Z,52.90
2022-08-17T00:31:48.569Z,54.97
2022-08-17T00:34:16.849Z,47.43
2022-08-17T00:36:45.194Z,49.40
2022-08-17T00:39:13.471Z,49.03
2022-08-17T00:41:42.422Z,49.60
2022-08-17T00:44:14.147Z,50.93
2022-08-17T00:46:45.436Z,47.87
2022-08-17T00:49:19.357Z,46.67
2022-08-17T00:51:54.364Z,48.87
2022-08-17T00:54:28.674Z,45.87
2022-08-17T00:57:00.947Z,47.03
2022-08-17T00:59:36.657Z,43.70
2022-08-17T01:02:06.690Z,48.20
2022-08-17T01:04:35.121Z,45.80
2022-08-17T01:07:06.119Z,45.53
2022-08-17T01:09:35.159Z,39.83
2022-08-17T01:12:06.558Z,43.37
2022-08-17T01:14:39.830Z,43.63
2022-08-17T01:17:09.042Z,41.80
2022-08-17T01:19:40.605Z,43.50
2022-08-17T01:22:23.049Z,45.77
2022-08-17T01:24:54.629Z,40.30
2022-08-17T01:27:22.966Z,41.80
2022-08-17T01:29:58.676Z,39.80
2022-08-17T01:32:28.071Z,39.33
2022-08-17T01:34:58.117Z,38.83
2022-08-17T01:37:34.442Z,46.73
2022-08-17T01:40:08.678Z,53.20
2022-08-17T01:42:44.215Z,54.63
2022-08-17T01:45:17.729Z,47.37
2022-08-17T01:47:46.188Z,56.30
2022-08-17T01:50:18.234Z,56.93
2022-08-17T01:52:51.631Z,52.40
2022-08-17T01:55:27.485Z,57.50
2022-08-17T01:57:56.039Z,53.57
2022-08-17T02:00:24.755Z,52.80
2022-08-17T02:02:52.942Z,54.77
2022-08-17T02:05:21.423Z,39.10
2022-08-17T02:08:00.455Z,47.47
2022-08-17T02:10:34.066Z,57.87
2022-08-17T02:13:03.371Z,55.37
2022-08-17T02:15:32.114Z,51.00
2022-08-17T02:18:00.748Z,58.77
2022-08-17T02:20:42.205Z,52.37
2022-08-17T02:23:14.414Z,65.33
2022-08-17T02:25:44.944Z,57.13
2022-08-17T02:28:13.033Z,57.97
2022-08-17T02:30:59.370Z,53.90
2022-08-17T02:33:42.227Z,51.70
2022-08-17T02:36:13.917Z,58.80
2022-08-17T02:38:43.702Z,54.10
2022-08-17T02:41:13.062Z,56.43
2022-08-17T02:43:41.298Z,60.33
2022-08-17T02:46:10.111Z,58.63
2022-08-17T02:48:38.255Z,56.53
2022-08-17T02:51:06.972Z,54.83
2022-08-17T02:53:35.785Z,63.50
2022-08-17T02:56:06.202Z,56.97
2022-08-17T02:58:36.096Z,51.50
2022-08-17T03:01:05.821Z,63.13
2022-08-17T03:03:34.397Z,61.03
2022-08-17T03:06:02.832Z,58.43
2022-08-17T03:08:31.629Z,59.53
2022-08-17T03:10:59.875Z,55.37
2022-08-17T03:13:30.779Z,57.87
2022-08-17T03:15:59.102Z,57.73
2022-08-17T03:18:28.005Z,58.80
2022-08-17T03:20:58.490Z,58.33
2022-08-17T03:23:29.563Z,58.10
2022-08-17T03:25:58.954Z,53.83
2022-08-17T03:28:29.266Z,55.07
2022-08-17T03:30:57.463Z,49.27
2022-08-17T03:33:25.674Z,52.07
2022-08-17T03:35:53.934Z,58.20
2022-08-17T03:38:24.831Z,67.37
2022-08-17T03:40:59.396Z,59.40
2022-08-17T03:43:32.841Z,59.20
2022-08-17T03:46:27.800Z,56.57
2022-08-17T03:49:21.275Z,61.63
2022-08-17T03:52:07.128Z,55.83
2022-08-17T03:54:53.011Z,55.30
2022-08-17T03:57:21.195Z,54.57
2022-08-17T03:59:51.393Z,58.57
2022-08-17T04:02:24.253Z,55.67
2022-08-17T04:04:54.337Z,60.07
2022-08-17T04:07:25.589Z,64.20
2022-08-17T04:09:54.261Z,57.27
2022-08-17T04:12:25.115Z,60.23
2022-08-17T04:14:55.349Z,62.40
2022-08-17T04:17:26.853Z,57.70
2022-08-17T04:19:56.538Z,56.30
2022-08-17T04:22:32.681Z,59.77
2022-08-17T04:25:05.383Z,58.97
2022-08-17T04:27:33.728Z,53.43
2022-08-17T04:30:03.745Z,59.07
2022-08-17T04:33:03.989Z,61.63
2022-08-17T04:35:23.453Z,57.23
2022-08-17T04:37:51.802Z,62.57
2022-08-17T04:40:40.511Z,55.67
2022-08-17T04:43:12.590Z,60.53
2022-08-17T04:45:51.243Z,76.23
2022-08-17T04:48:35.255Z,58.20
2022-08-17T04:51:09.854Z,62.33
2022-08-17T04:53:40.211Z,62.90
2022-08-17T04:56:15.940Z,59.23
2022-08-17T04:58:47.829Z,57.33
2022-08-17T05:01:18.532Z,55.47
2022-08-17T05:03:53.375Z,59.60
2022-08-17T05:06:21.592Z,61.60
2022-08-17T05:08:49.918Z,58.43
2022-08-17T05:11:18.464Z,59.27
2022-08-17T05:13:50.068Z,57.03
2022-08-17T05:16:21.542Z,59.13
2022-08-17T05:18:49.903Z,64.33
2022-08-17T05:21:19.246Z,63.03
2022-08-17T05:23:53.930Z,68.40
2022-08-17T05:26:26.679Z,80.03
2022-08-17T05:29:00.491Z,72.53
2022-08-17T05:31:32.676Z,75.33
2022-08-17T05:34:00.844Z,79.30
2022-08-17T05:36:43.247Z,83.63
2022-08-17T05:39:15.738Z,87.13
2022-08-17T05:41:48.696Z,77.10
2022-08-17T05:44:17.852Z,85.03
2022-08-17T05:46:51.137Z,80.93
2022-08-17T05:49:24.578Z,86.07
2022-08-17T05:52:20.071Z,83.23
2022-08-17T05:55:06.260Z,84.37
2022-08-17T05:58:08.804Z,84.43
2022-08-17T06:00:48.118Z,81.43
2022-08-17T06:03:45.574Z,84.63
2022-08-17T06:06:39.841Z,76.47
2022-08-17T06:09:33.585Z,79.60
2022-08-17T06:12:20.086Z,78.87
2022-08-17T06:15:07.609Z,78.03
2022-08-17T06:17:36.777Z,74.13
2022-08-17T06:20:11.950Z,66.00
2022-08-17T06:22:45.677Z,67.83
2022-08-17T06:25:19.469Z,67.43
2022-08-17T06:27:53.483Z,62.77
2022-08-17T06:30:26.240Z,56.33
2022-08-17T06:32:59.531Z,62.03
2022-08-17T06:35:39.980Z,58.90
2022-08-17T06:38:34.968Z,55.20
2022-08-17T06:41:16.370Z,53.47
2022-08-17T06:44:04.689Z,48.73
2022-08-17T06:46:38.545Z,45.03
2022-08-17T06:49:17.681Z,48.93
2022-08-17T06:51:53.694Z,47.30
2022-08-17T06:54:35.038Z,49.73
2022-08-17T06:57:14.816Z,47.23
2022-08-17T06:59:55.755Z,49.13
2022-08-17T07:02:52.487Z,54.67
2022-08-17T07:05:26.246Z,50.00
2022-08-17T07:08:04.409Z,48.47
2022-08-17T07:10:44.696Z,52.37
2022-08-17T07:13:32.599Z,50.03
2022-08-17T07:16:16.737Z,47.73
2022-08-17T07:18:45.387Z,44.00
2022-08-17T07:21:31.540Z,45.07
2022-08-17T07:24:29.390Z,43.93
2022-08-17T07:27:16.216Z,42.03
2022-08-17T07:29:53.658Z,42.13
2022-08-17T07:32:27.718Z,41.27
2022-08-17T07:35:11.848Z,41.80
2022-08-17T07:37:42.900Z,39.73
2022-08-17T07:40:38.094Z,38.57
2022-08-17T07:43:23.082Z,37.67
2022-08-17T07:46:36.182Z,36.10
2022-08-17T07:49:35.232Z,37.37
2022-08-17T07:52:24.262Z,34.90
2022-08-17T07:54:57.471Z,34.57
2022-08-17T07:57:36.659Z,33.23
2022-08-17T08:00:32.180Z,34.93
2022-08-17T08:03:26.221Z,32.70
2022-08-17T08:06:00.249Z,32.27
2022-08-17T08:08:33.538Z,33.93
2022-08-17T08:11:09.456Z,32.10
2022-08-17T08:13:45.120Z,30.90
2022-08-17T08:16:27.570Z,29.70
2022-08-17T08:18:58.917Z,28.97
2022-08-17T08:21:38.100Z,32.63
2022-08-17T08:24:30.176Z,31.50
2022-08-17T08:27:10.269Z,31.67
2022-08-17T08:29:49.132Z,33.30
2022-08-17T08:32:23.291Z,32.00
2022-08-17T08:35:04.051Z,32.83
2022-08-17T08:37:45.048Z,31.48
2022-08-17T08:40:34.861Z,31.42
2022-08-17T08:43:16.201Z,32.72
2022-08-17T08:45:56.657Z,34.50
2022-08-17T08:48:56.376Z,34.13
2022-08-17T08:51:40.461Z,34.78
2022-08-17T08:54:27.267Z,33.72
2022-08-17T09:00:08.713Z,32.35
2022-08-17T09:03:09.013Z,30.35
2022-08-17T09:06:04.052Z,33.95
2022-08-17T09:08:54.340Z,33.85
2022-08-17T09:11:31.990Z,34.17
2022-08-17T09:14:21.568Z,35.55
2022-08-17T09:17:05.020Z,34.45
2022-08-17T09:19:40.109Z,32.85
2022-08-17T09:22:23.659Z,31.25
2022-08-17T09:24:58.355Z,37.15
2022-08-17T09:27:33.296Z,34.10
2022-08-17T09:30:07.831Z,32.70
2022-08-17T09:32:44.004Z,35.40
2022-08-17T09:35:20.023Z,30.52
2022-08-17T09:37:58.546Z,33.28
2022-08-17T09:40:34.730Z,29.58
2022-08-17T09:43:11.318Z,32.25
2022-08-17T09:45:49.493Z,30.27
2022-08-17T09:48:22.807Z,29.00
2022-08-17T09:51:08.215Z,27.92
2022-08-17T09:53:38.698Z,29.67
2022-08-17T09:56:45.984Z,31.67
2022-08-17T09:59:41.871Z,29.10
2022-08-17T10:02:56.528Z,31.05
2022-08-17T10:05:33.225Z,33.35
2022-08-17T10:08:12.473Z,34.60
2022-08-17T10:10:56.198Z,33.45
2022-08-17T10:13:41.141Z,33.50
2022-08-17T10:16:32.110Z,34.60
2022-08-17T10:19:17.303Z,32.70
2022-08-17T10:22:14.590Z,29.67
2022-08-17T10:25:22.195Z,30.83
2022-08-17T10:27:58.459Z,32.45
2022-08-17T10:30:31.094Z,33.53
2022-08-17T10:33:02.247Z,33.67
2022-08-17T10:35:43.479Z,33.38
2022-08-17T10:38:41.110Z,30.05
2022-08-17T10:41:29.033Z,33.63
2022-08-17T10:44:38.095Z,30.98
2022-08-17T10:47:10.494Z,32.03
2022-08-17T10:49:47.891Z,30.85
2022-08-17T10:52:51.670Z,31.50
2022-08-17T10:55:21.361Z,31.90
2022-08-17T10:57:54.815Z,32.92
2022-08-17T11:01:12.853Z,32.70
2022-08-17T11:03:54.097Z,32.60
2022-08-17T11:06:34.614Z,40.33
2022-08-17T11:09:29.309Z,32.75
2022-08-17T11:12:25.593Z,33.97
2022-08-17T11:15:14.441Z,33.17
2022-08-17T11:18:19.160Z,35.70
2022-08-17T11:21:14.629Z,38.92
2022-08-17T11:24:23.139Z,40.08
2022-08-17T11:27:27.398Z,41.78
2022-08-17T11:30:02.757Z,40.33
2022-08-17T11:32:47.486Z,39.58
2022-08-17T11:35:34.711Z,36.53
2022-08-17T11:38:17.726Z,39.88
2022-08-17T11:41:07.196Z,36.80
2022-08-17T11:44:11.531Z,35.45
2022-08-17T11:47:19.088Z,36.10
2022-08-17T11:50:27.922Z,31.70
2022-08-17T11:52:56.727Z,33.45
2022-08-17T11:56:04.104Z,35.33
2022-08-17T11:58:40.561Z,34.40
2022-08-17T12:01:13.586Z,35.38
2022-08-17T12:03:56.073Z,33.03
2022-08-17T12:06:46.862Z,32.03
2022-08-17T12:09:20.652Z,32.20
2022-08-17T12:12:12.410Z,32.17
2022-08-17T12:15:09.432Z,32.05
2022-08-17T12:17:40.815Z,31.23
2022-08-17T12:20:29.410Z,33.30
2022-08-17T12:23:08.048Z,32.25
2022-08-17T12:25:42.067Z,29.42
2022-08-17T12:28:23.511Z,31.15
2022-08-17T12:30:53.277Z,29.42
2022-08-17T12:33:28.639Z,30.13
2022-08-17T12:36:04.440Z,29.80
2022-08-17T12:38:35.039Z,28.58
2022-08-17T12:41:21.439Z,30.92
2022-08-17T12:44:01.582Z,28.27
2022-08-17T12:46:36.013Z,30.13
2022-08-17T12:49:23.600Z,29.83
2022-08-17T12:52:02.236Z,30.13
2022-08-17T12:54:42.592Z,29.75
2022-08-17T12:57:18.101Z,31.70
2022-08-17T12:59:52.693Z,33.58
2022-08-17T13:02:30.934Z,32.10
2022-08-17T13:05:02.324Z,31.85
2022-08-17T13:07:37.160Z,34.72
2022-08-17T13:10:06.453Z,29.70
2022-08-17T13:12:36.577Z,28.50
2022-08-17T13:15:06.211Z,29.17
2022-08-17T13:17:37.546Z,28.75
2022-08-17T13:20:15.726Z,26.48
2022-08-17T13:22:54.019Z,27.80
2022-08-17T13:25:22.839Z,28.10
2022-08-17T13:27:53.662Z,26.08
2022-08-17T13:30:28.096Z,24.98
2022-08-17T13:32:58.317Z,26.20
2022-08-17T13:35:49.900Z,25.58
2022-08-17T13:38:41.094Z,25.45
2022-08-17T13:41:09.467Z,26.35
2022-08-17T13:43:48.550Z,25.05
2022-08-17T13:46:23.848Z,24.65
2022-08-17T13:49:01.874Z,24.17
2022-08-17T13:51:34.743Z,26.30
2022-08-17T13:54:22.150Z,25.25
2022-08-17T13:56:58.712Z,25.95
2022-08-17T13:59:55.309Z,24.48
2022-08-17T14:02:28.378Z,24.27
2022-08-17T14:05:02.030Z,24.45
2022-08-17T14:07:37.246Z,23.52
2022-08-17T14:10:13.621Z,22.58
2022-08-17T14:12:44.381Z,24.35
2022-08-17T14:15:14.907Z,24.60
2022-08-17T14:17:43.111Z,24.98
2022-08-17T14:20:14.083Z,25.88
2022-08-17T14:22:47.209Z,26.65
2022-08-17T14:25:20.853Z,28.23
2022-08-17T14:27:53.172Z,26.73
2022-08-17T14:30:25.438Z,25.30
2022-08-17T14:32:57.926Z,25.90
2022-08-17T14:35:28.090Z,26.00
2022-08-17T14:37:57.551Z,26.40
2022-08-17T14:40:28.040Z,26.80
2022-08-17T14:42:58.172Z,26.42
2022-08-17T14:45:32.281Z,24.73
2022-08-17T14:48:05.622Z,24.55
2022-08-17T14:50:35.700Z,27.20
2022-08-17T14:53:05.176Z,24.60
2022-08-17T14:55:35.518Z,25.50
2022-08-17T14:58:05.073Z,27.20
2022-08-17T15:00:33.381Z,26.27
2022-08-17T15:03:02.763Z,26.60
2022-08-17T15:05:34.078Z,27.88
2022-08-17T15:08:04.630Z,26.88
2022-08-17T15:10:34.978Z,27.70
2022-08-17T15:13:03.488Z,27.33
2022-08-17T15:15:32.091Z,27.55
2022-08-17T15:18:00.997Z,27.27
2022-08-17T15:20:31.175Z,25.75
2022-08-17T15:22:59.679Z,25.38
2022-08-17T15:25:30.589Z,27.08
2022-08-17T15:28:01.232Z,28.35
2022-08-17T15:30:30.625Z,30.73
2022-08-17T15:33:00.648Z,30.42
2022-08-17T15:35:32.069Z,30.95
2022-08-17T15:38:07.964Z,29.23
2022-08-17T15:40:43.051Z,29.10
2022-08-17T15:43:15.852Z,29.92
2022-08-17T15:45:45.079Z,13.10
2022-08-17T15:48:40.594Z,8.10
2022-08-17T15:51:11.409Z,6.07
2022-08-17T15:53:41.890Z,8.37
2022-08-17T15:56:11.300Z,7.43
2022-08-17T15:58:42.195Z,5.30
2022-08-17T16:01:14.792Z,8.97
2022-08-17T16:04:06.624Z,12.30
2022-08-17T16:06:36.486Z,9.67
2022-08-17T16:09:04.811Z,11.27
2022-08-17T16:11:32.942Z,7.50
2022-08-17T16:14:02.515Z,9.93
2022-08-17T16:16:31.231Z,7.77
2022-08-17T16:18:59.531Z,8.17
2022-08-17T16:21:31.160Z,9.63
2022-08-17T16:24:12.709Z,9.87
2022-08-17T16:26:43.785Z,9.77
2022-08-17T16:29:13.417Z,10.73
2022-08-17T16:31:42.425Z,9.63
2022-08-17T16:34:17.045Z,8.83
2022-08-17T16:36:53.598Z,8.50
2022-08-17T16:39:26.065Z,10.13
2022-08-17T16:41:54.805Z,9.03
2022-08-17T16:44:25.648Z,9.60
2022-08-17T16:46:53.828Z,9.47
2022-08-17T16:49:24.492Z,9.60
2022-08-17T16:52:10.014Z,12.27
2022-08-17T16:54:41.715Z,11.17
2022-08-17T16:57:09.983Z,10.17
2022-08-17T16:59:45.020Z,10.67
2022-08-17T17:02:18.113Z,11.73
2022-08-17T17:04:54.898Z,11.63
2022-08-17T17:08:03.908Z,11.00
2022-08-17T17:10:39.243Z,11.60
2022-08-17T17:13:14.531Z,11.13
2022-08-17T17:15:55.729Z,11.50
2022-08-17T17:18:37.706Z,11.73
2022-08-17T17:21:10.650Z,12.27
2022-08-17T17:23:52.969Z,11.87
2022-08-17T17:26:38.890Z,14.33
2022-08-17T17:29:28.766Z,12.53
2022-08-17T17:32:22.647Z,14.80
2022-08-17T17:35:02.885Z,14.27
2022-08-17T17:37:36.675Z,14.13
2022-08-17T17:40:10.393Z,18.53
2022-08-17T17:42:42.698Z,21.30
2022-08-17T17:45:19.989Z,23.57
2022-08-17T17:47:50.742Z,24.53
2022-08-17T17:50:23.472Z,25.07
2022-08-17T17:53:04.029Z,25.70
2022-08-17T17:55:48.413Z,30.23
2022-08-17T17:58:35.425Z,30.73
2022-08-17T18:01:27.091Z,30.93
2022-08-17T18:04:20.493Z,30.57
2022-08-17T18:07:12.823Z,24.13
2022-08-17T18:10:29.611Z,22.37
2022-08-17T18:13:12.892Z,22.17
2022-08-17T18:15:51.352Z,15.90
2022-08-17T18:18:38.511Z,14.87
2022-08-17T18:21:16.730Z,10.70
2022-08-17T18:23:50.821Z,12.30
2022-08-17T18:26:48.384Z,11.63
2022-08-17T18:29:35.853Z,10.43
2022-08-17T18:32:40.745Z,11.67
2022-08-17T18:35:35.025Z,9.13
2022-08-17T18:38:24.764Z,8.73
2022-08-17T18:41:02.546Z,10.63
2022-08-17T18:43:44.446Z,10.90
2022-08-17T18:46:29.709Z,9.13
2022-08-17T18:49:01.333Z,11.90
2022-08-17T18:51:40.511Z,10.83
2022-08-17T18:54:24.298Z,9.47
2022-08-17T18:56:56.675Z,11.30
2022-08-17T18:59:30.942Z,10.50
2022-08-17T19:02:38.762Z,12.57
2022-08-17T19:05:13.747Z,10.90
2022-08-17T19:07:45.524Z,11.83
2022-08-17T19:10:23.012Z,13.77
2022-08-17T19:13:00.722Z,13.27
2022-08-17T19:15:36.687Z,16.87
2022-08-17T19:18:15.675Z,19.93
2022-08-17T19:20:59.595Z,13.90
2022-08-17T19:23:35.132Z,14.13
2022-08-17T19:26:50.326Z,16.67
2022-08-17T19:29:09.372Z,14.73
2022-08-17T19:31:38.022Z,14.67
2022-08-17T19:34:06.449Z,15.37
2022-08-17T19:36:43.383Z,18.37
2022-08-17T19:39:19.347Z,16.00
2022-08-17T19:41:58.482Z,18.53
2022-08-17T19:44:50.373Z,17.77
2022-08-17T19:47:51.248Z,18.47
2022-08-17T19:50:22.473Z,16.47
2022-08-17T19:52:57.978Z,21.50
2022-08-17T19:55:33.202Z,22.27
2022-08-17T19:58:12.390Z,19.67
2022-08-17T20:00:52.736Z,18.60
2022-08-17T20:03:27.639Z,17.73
2022-08-17T20:06:15.270Z,15.30
2022-08-17T20:08:57.163Z,13.17
2022-08-17T20:11:33.997Z,13.20
2022-08-17T20:14:09.383Z,12.60
2022-08-17T20:16:37.652Z,13.30
2022-08-17T20:19:12.387Z,17.87
2022-08-17T20:21:47.522Z,14.63
2022-08-17T20:24:23.789Z,15.83
2022-08-17T20:26:58.737Z,15.10
2022-08-17T20:29:37.445Z,14.00
2022-08-17T20:32:28.903Z,16.57
2022-08-17T20:35:22.831Z,17.13
2022-08-17T20:37:58.732Z,19.53
2022-08-17T20:40:38.300Z,21.50
2022-08-17T20:44:02.416Z,17.73
2022-08-17T20:46:52.281Z,23.27
2022-08-17T20:49:27.944Z,20.10
2022-08-17T20:52:03.005Z,19.63
2022-08-17T20:54:51.207Z,20.20
2022-08-17T20:57:49.769Z,20.30
2022-08-17T21:01:10.595Z,24.97
2022-08-17T21:03:52.265Z,24.93
2022-08-17T21:06:26.126Z,26.47
2022-08-17T21:09:00.676Z,21.33
2022-08-17T21:12:04.469Z,26.80
2022-08-17T21:14:58.618Z,25.80
2022-08-17T21:17:46.479Z,23.73
2022-08-17T21:20:32.914Z,23.63
2022-08-17T21:23:40.566Z,20.20
2022-08-17T21:26:21.422Z,20.53
2022-08-17T21:29:31.020Z,19.53
2022-08-17T21:32:25.190Z,17.70
2022-08-17T21:35:31.559Z,18.40
2022-08-17T21:38:15.076Z,21.40
2022-08-17T21:40:50.147Z,21.30
2022-08-17T21:43:29.295Z,22.63
2022-08-17T21:46:02.834Z,19.10
2022-08-17T21:48:33.532Z,20.47
2022-08-17T21:51:12.213Z,19.43
2022-08-17T21:53:46.332Z,21.50
2022-08-17T21:56:24.329Z,18.53
2022-08-17T21:58:58.674Z,20.87
2022-08-17T22:01:30.439Z,20.90
2022-08-17T22:04:06.600Z,16.83
2022-08-17T22:06:40.584Z,13.37
2022-08-17T22:09:20.244Z,14.27
2022-08-17T22:12:07.050Z,14.80
2022-08-17T22:14:52.576Z,12.67
2022-08-17T22:17:26.155Z,12.83
2022-08-17T22:19:59.038Z,15.77
2022-08-17T22:22:55.004Z,14.57
2022-08-17T22:25:25.630Z,13.83
2022-08-17T22:27:58.181Z,12.97
2022-08-17T22:30:37.541Z,15.57
2022-08-17T22:33:36.889Z,14.87
2022-08-17T22:36:22.145Z,14.77
2022-08-17T22:38:53.539Z,13.37
2022-08-17T22:41:48.239Z,12.90
2022-08-17T22:44:24.984Z,14.40
2022-08-17T22:47:11.152Z,15.27
2022-08-17T22:49:53.285Z,13.17
2022-08-17T22:52:35.611Z,17.30
2022-08-17T22:55:34.801Z,17.47
2022-08-17T22:58:27.830Z,14.73
2022-08-17T23:00:56.341Z,14.37
2022-08-17T23:03:28.546Z,20.50
2022-08-17T23:06:07.664Z,16.20
2022-08-17T23:08:43.844Z,19.00
2022-08-17T23:11:14.282Z,17.23
2022-08-17T23:13:42.443Z,19.33
2022-08-17T23:16:10.940Z,19.10
2022-08-17T23:18:39.134Z,23.97
2022-08-17T23:21:07.744Z,21.27
2022-08-17T23:23:37.960Z,18.27
2022-08-17T23:26:10.418Z,19.87
2022-08-17T23:28:41.025Z,19.77
2022-08-17T23:31:09.403Z,25.30
2022-08-17T23:33:39.377Z,19.17
2022-08-17T23:36:09.783Z,20.03
2022-08-17T23:38:38.171Z,19.20
2022-08-17T23:41:12.745Z,19.27
2022-08-17T23:43:44.743Z,23.40
2022-08-17T23:46:13.114Z,19.30
2022-08-17T23:48:42.101Z,20.93
2022-08-17T23:51:16.115Z,17.07
2022-08-17T23:53:48.132Z,24.53
2022-08-17T23:56:22.683Z,25.17
2022-08-17T23:58:52.402Z,21.90
